createdAt,value
2018-10-12T00:00:55.891Z,89.50
2018-10-12T00:03:23.067Z,90.20
2018-10-12T00:05:50.244Z,90.80
2018-10-12T00:08:17.415Z,91.30
2018-10-12T00:10:44.579Z,92.30
2018-10-12T00:13:11.744Z,93.00
2018-10-12T00:15:38.925Z,93.40
2018-10-12T00:18:06.091Z,93.80
2018-10-12T00:20:33.281Z,93.90
2018-10-12T00:23:01.592Z,94.10
2018-10-12T00:25:28.782Z,94.40
2018-10-12T00:27:56.085Z,94.70
2018-10-12T00:30:23.271Z,94.70
2018-10-12T00:32:50.439Z,94.30
2018-10-12T00:35:17.598Z,93.50
2018-10-12T00:37:44.785Z,93.60
2018-10-12T00:40:11.943Z,94.10
2018-10-12T00:42:39.168Z,94.50
2018-10-12T00:45:06.367Z,92.60
2018-10-12T00:47:33.557Z,91.80
2018-10-12T00:50:00.736Z,92.60
2018-10-12T00:52:28.046Z,93.30
2018-10-12T00:54:55.237Z,94.00
2018-10-12T00:57:22.411Z,94.40
2018-10-12T00:59:49.614Z,94.80
2018-10-12T01:02:16.791Z,95.20
2018-10-12T01:04:43.955Z,95.30
2018-10-12T01:07:11.128Z,95.50
2018-10-12T01:09:38.301Z,95.40
2018-10-12T01:12:17.244Z,95.70
2018-10-12T01:14:44.388Z,95.80
2018-10-12T01:17:18.376Z,95.90
2018-10-12T01:19:45.576Z,96.20
2018-10-12T01:22:12.853Z,96.20
2018-10-12T01:24:40.092Z,96.40
2018-10-12T01:27:07.348Z,96.40
2018-10-12T01:29:34.560Z,96.20
2018-10-12T01:32:01.781Z,96.40
2018-10-12T01:34:28.994Z,96.60
2018-10-12T01:36:56.163Z,96.70
2018-10-12T01:39:23.364Z,96.80
2018-10-12T01:41:50.561Z,96.90
2018-10-12T01:44:17.752Z,97.10
2018-10-12T01:46:44.984Z,97.10
2018-10-12T01:49:12.203Z,97.10
2018-10-12T01:51:39.370Z,97.20
2018-10-12T01:54:06.589Z,97.10
2018-10-12T01:56:33.755Z,97.10
2018-10-12T01:59:00.936Z,96.80
2018-10-12T02:01:28.128Z,97.00
2018-10-12T02:03:55.307Z,97.00
2018-10-12T02:06:22.475Z,97.10
2018-10-12T02:08:49.662Z,97.00
2018-10-12T02:11:16.831Z,97.50
2018-10-12T02:13:43.999Z,97.50
2018-10-12T02:16:11.502Z,94.20
2018-10-12T02:18:38.683Z,95.10
2018-10-12T02:21:05.875Z,96.20
2018-10-12T02:23:33.051Z,97.10
2018-10-12T02:26:00.240Z,98.00
2018-10-12T02:28:27.395Z,98.20
2018-10-12T02:30:54.580Z,98.30
2018-10-12T02:33:21.748Z,98.20
2018-10-12T02:35:48.911Z,97.70
2018-10-12T02:38:16.097Z,97.40
2018-10-12T02:40:43.272Z,94.10
2018-10-12T02:43:10.444Z,93.00
2018-10-12T02:45:37.618Z,93.20
2018-10-12T02:48:05.104Z,94.30
2018-10-12T02:50:32.279Z,95.90
2018-10-12T02:52:59.447Z,97.20
2018-10-12T02:55:26.615Z,98.10
2018-10-12T02:57:53.771Z,98.20
2018-10-12T03:00:20.971Z,98.10
2018-10-12T03:02:48.177Z,98.50
2018-10-12T03:05:15.319Z,98.30
2018-10-12T03:07:42.507Z,99.20
2018-10-12T03:10:09.729Z,99.30
2018-10-12T03:12:36.911Z,99.20
2018-10-12T03:15:04.127Z,99.10
2018-10-12T03:17:31.290Z,99.00
2018-10-12T03:20:05.291Z,98.90
2018-10-12T03:22:32.452Z,98.60
2018-10-12T03:24:59.630Z,98.70
2018-10-12T03:27:26.843Z,98.80
2018-10-12T03:29:54.059Z,98.10
2018-10-12T03:32:21.259Z,98.00
2018-10-12T03:34:48.485Z,98.20
2018-10-12T03:37:15.751Z,98.00
2018-10-12T03:39:42.929Z,98.10
2018-10-12T03:42:10.131Z,98.80
2018-10-12T03:44:37.336Z,95.30
2018-10-12T03:47:04.530Z,92.80
2018-10-12T03:49:31.733Z,93.00
2018-10-12T03:51:58.937Z,94.30
2018-10-12T03:54:26.103Z,95.30
2018-10-12T03:56:53.268Z,96.20
2018-10-12T03:59:20.439Z,96.80
2018-10-12T04:01:47.611Z,97.30
2018-10-12T04:04:15.017Z,97.40
2018-10-12T04:06:42.215Z,97.60
2018-10-12T04:09:09.395Z,97.40
2018-10-12T04:11:36.571Z,96.90
2018-10-12T04:14:03.734Z,97.20
2018-10-12T04:16:30.897Z,97.30
2018-10-12T04:18:58.063Z,97.50
2018-10-12T04:21:25.242Z,97.80
2018-10-12T04:23:52.442Z,98.10
2018-10-12T04:26:19.661Z,98.60
2018-10-12T04:28:46.831Z,99.10
2018-10-12T04:31:13.999Z,99.10
2018-10-12T04:33:41.198Z,99.40
2018-10-12T04:36:08.411Z,99.40
2018-10-12T04:38:47.419Z,98.80
2018-10-12T04:41:16.751Z,96.70
2018-10-12T04:43:44.826Z,95.50
2018-10-12T04:46:14.433Z,95.00
2018-10-12T04:48:42.512Z,95.20
2018-10-12T04:51:14.199Z,95.50
2018-10-12T04:53:41.426Z,96.40
2018-10-12T04:56:10.703Z,97.10
2018-10-12T04:58:38.690Z,97.60
2018-10-12T05:01:05.932Z,98.70
2018-10-12T05:03:33.111Z,99.20
2018-10-12T05:06:00.674Z,99.60
2018-10-12T05:08:27.864Z,99.40
2018-10-12T05:10:55.039Z,98.90
2018-10-12T05:13:22.243Z,97.30
2018-10-12T05:15:49.420Z,96.10
2018-10-12T05:18:16.624Z,96.20
2018-10-12T05:20:43.780Z,96.90
2018-10-12T05:23:10.964Z,97.60
2018-10-12T05:25:38.119Z,98.00
2018-10-12T05:28:05.342Z,97.30
2018-10-12T05:33:06.582Z,95.80
2018-10-12T05:35:33.737Z,96.70
2018-10-12T05:38:01.213Z,97.20
2018-10-12T05:40:28.428Z,97.40
2018-10-12T05:42:55.731Z,97.60
2018-10-12T05:45:23.153Z,98.10
2018-10-12T05:47:50.341Z,98.50
2018-10-12T05:50:17.548Z,98.80
2018-10-12T05:52:44.741Z,99.00
2018-10-12T05:55:11.959Z,98.90
2018-10-12T05:57:40.840Z,98.80
2018-10-12T06:00:08.703Z,98.70
2018-10-12T06:02:36.028Z,98.70
2018-10-12T06:05:03.403Z,98.70
2018-10-12T06:07:30.732Z,98.50
2018-10-12T06:09:58.087Z,98.70
2018-10-12T06:12:25.170Z,98.70
2018-10-12T06:14:52.365Z,98.80
2018-10-12T06:17:19.567Z,98.50
2018-10-12T06:19:46.850Z,98.50
2018-10-12T06:22:14.125Z,98.50
2018-10-12T06:24:41.389Z,98.50
2018-10-12T06:27:08.627Z,98.60
2018-10-12T06:29:35.871Z,98.40
2018-10-12T06:32:03.056Z,98.30
2018-10-12T06:34:30.365Z,98.40
2018-10-12T06:36:57.545Z,98.30
2018-10-12T06:39:24.747Z,98.40
2018-10-12T06:41:51.988Z,98.10
2018-10-12T06:44:19.163Z,97.90
2018-10-12T06:46:46.463Z,97.90
2018-10-12T06:49:13.591Z,97.90
2018-10-12T06:51:40.813Z,97.90
2018-10-12T06:54:08.339Z,98.20
2018-10-12T06:56:35.523Z,98.50
2018-10-12T06:59:02.967Z,98.70
2018-10-12T07:01:30.331Z,98.60
2018-10-12T07:03:57.787Z,99.10
2018-10-12T07:06:25.165Z,99.40
2018-10-12T07:08:52.316Z,99.60
2018-10-12T07:11:19.521Z,99.10
2018-10-12T07:13:47.466Z,98.80
2018-10-12T07:16:14.767Z,98.70
2018-10-12T07:18:42.023Z,98.60
2018-10-12T07:21:09.203Z,98.40
2018-10-12T07:23:36.364Z,98.30
2018-10-12T07:26:03.695Z,98.20
2018-10-12T07:28:30.820Z,97.80
2018-10-12T07:30:58.034Z,97.50
2018-10-12T07:33:25.201Z,97.30
2018-10-12T07:35:52.407Z,97.10
2018-10-12T07:38:19.587Z,97.30
2018-10-12T07:40:46.751Z,97.00
2018-10-12T07:43:13.922Z,95.90
2018-10-12T07:45:41.147Z,96.20
2018-10-12T07:48:08.364Z,96.10
2018-10-12T07:50:35.507Z,95.40
2018-10-12T07:53:02.699Z,95.80
2018-10-12T07:55:29.855Z,95.90
2018-10-12T07:57:57.019Z,96.30
2018-10-12T08:00:24.196Z,96.40
2018-10-12T08:02:51.347Z,96.10
2018-10-12T08:05:18.517Z,95.90
2018-10-12T08:07:45.725Z,95.90
2018-10-12T08:10:12.899Z,95.70
2018-10-12T08:12:40.113Z,95.90
2018-10-12T08:15:07.332Z,95.40
2018-10-12T08:17:34.536Z,95.00
2018-10-12T08:20:02.615Z,94.90
2018-10-12T08:22:36.414Z,94.40
2018-10-12T08:25:03.613Z,94.50
2018-10-12T08:27:30.849Z,94.10
2018-10-12T08:29:58.279Z,93.90
2018-10-12T08:32:25.608Z,94.40
2018-10-12T08:34:52.756Z,93.40
2018-10-12T08:37:19.927Z,93.30
2018-10-12T08:39:47.107Z,93.20
2018-10-12T08:42:14.295Z,92.60
2018-10-12T08:44:41.468Z,92.80
2018-10-12T08:47:08.697Z,92.10
2018-10-12T08:49:35.863Z,92.20
2018-10-12T08:52:03.043Z,91.90
2018-10-12T08:54:30.214Z,91.80
2018-10-12T08:56:57.363Z,91.90
2018-10-12T08:59:24.549Z,91.50
2018-10-12T09:01:51.732Z,91.40
2018-10-12T09:04:19.766Z,91.20
2018-10-12T09:06:46.928Z,91.00
2018-10-12T09:09:14.125Z,90.50
2018-10-12T09:11:41.299Z,90.80
2018-10-12T09:14:08.852Z,90.60
2018-10-12T09:16:36.011Z,89.70
2018-10-12T09:19:03.460Z,89.10
2018-10-12T09:21:30.896Z,88.60
2018-10-12T09:23:58.067Z,88.50
2018-10-12T09:26:25.244Z,89.00
2018-10-12T09:28:52.414Z,88.00
2018-10-12T09:31:19.587Z,87.70
2018-10-12T09:33:46.776Z,88.90
2018-10-12T09:36:13.973Z,89.30
2018-10-12T09:38:41.147Z,87.80
2018-10-12T09:41:08.331Z,88.50
2018-10-12T09:43:35.503Z,87.70
2018-10-12T09:46:09.537Z,86.50
2018-10-12T09:48:36.693Z,84.90
2018-10-12T09:51:03.863Z,84.50
2018-10-12T09:53:31.019Z,84.70
2018-10-12T09:55:58.203Z,83.70
2018-10-12T09:58:25.367Z,82.40
2018-10-12T10:00:58.351Z,82.70
2018-10-12T10:03:31.196Z,82.30
2018-10-12T10:05:59.746Z,81.80
2018-10-12T10:08:27.066Z,81.70
2018-10-12T10:10:54.075Z,81.10
2018-10-12T10:13:21.239Z,80.10
2018-10-12T10:15:48.436Z,79.60
2018-10-12T10:18:15.599Z,79.70
2018-10-12T10:20:42.781Z,79.30
2018-10-12T10:23:10.064Z,79.70
2018-10-12T10:25:37.263Z,79.60
2018-10-12T10:28:04.923Z,78.80
2018-10-12T10:30:32.083Z,77.80
2018-10-12T10:32:59.260Z,77.10
2018-10-12T10:35:26.458Z,79.10
2018-10-12T10:37:53.623Z,76.80
2018-10-12T10:40:20.815Z,77.00
2018-10-12T10:42:47.982Z,76.70
2018-10-12T10:45:15.204Z,75.60
2018-10-12T10:47:42.380Z,75.70
2018-10-12T10:50:09.566Z,75.40
2018-10-12T10:52:36.799Z,74.60
2018-10-12T10:55:04.035Z,73.70
2018-10-12T10:57:31.198Z,72.20
2018-10-12T10:59:58.383Z,71.40
2018-10-12T11:02:25.546Z,71.90
2018-10-12T11:04:52.711Z,71.40
2018-10-12T11:07:19.903Z,71.90
2018-10-12T11:09:47.067Z,71.70
2018-10-12T11:12:14.290Z,72.40
2018-10-12T11:14:41.415Z,71.90
2018-10-12T11:17:08.598Z,70.70
2018-10-12T11:19:35.858Z,70.90
2018-10-12T11:22:02.963Z,71.00
2018-10-12T11:24:30.241Z,70.30
2018-10-12T11:26:57.401Z,70.90
2018-10-12T11:29:24.499Z,69.60
2018-10-12T11:31:51.688Z,69.30
2018-10-12T11:34:18.845Z,69.00
2018-10-12T11:36:46.031Z,69.20
2018-10-12T11:39:14.559Z,68.60
2018-10-12T11:41:41.754Z,67.90
2018-10-12T11:44:08.956Z,66.80
2018-10-12T11:46:36.156Z,66.90
2018-10-12T11:49:03.377Z,65.90
2018-10-12T11:51:30.588Z,64.80
2018-10-12T11:53:57.771Z,65.50
2018-10-12T11:56:24.937Z,64.90
2018-10-12T11:58:52.125Z,64.30
2018-10-12T12:01:19.288Z,63.30
2018-10-12T12:03:46.489Z,64.10
2018-10-12T12:06:13.663Z,62.90
2018-10-12T12:08:40.832Z,62.30
2018-10-12T12:11:08.019Z,62.50
2018-10-12T12:13:35.218Z,61.50
2018-10-12T12:16:02.372Z,61.10
2018-10-12T12:18:29.575Z,61.80
2018-10-12T12:20:56.751Z,60.40
2018-10-12T12:23:23.929Z,60.00
2018-10-12T12:25:57.830Z,60.50
2018-10-12T12:28:25.017Z,61.50
2018-10-12T12:30:52.210Z,60.10
2018-10-12T12:33:19.380Z,59.70
2018-10-12T12:35:46.832Z,58.20
2018-10-12T12:38:13.719Z,58.30
2018-10-12T12:40:40.871Z,57.70
2018-10-12T12:43:08.061Z,56.50
2018-10-12T12:45:35.223Z,55.60
2018-10-12T12:48:02.596Z,55.30
2018-10-12T12:50:29.592Z,54.40
2018-10-12T12:52:56.751Z,54.50
2018-10-12T12:55:23.996Z,54.00
2018-10-12T12:57:51.122Z,54.50
2018-10-12T13:00:18.309Z,54.00
2018-10-12T13:02:45.456Z,53.60
2018-10-12T13:05:12.632Z,53.30
2018-10-12T13:10:13.891Z,53.30
2018-10-12T13:12:41.046Z,52.60
2018-10-12T13:15:08.251Z,52.60
2018-10-12T13:17:35.425Z,52.40
2018-10-12T13:20:02.615Z,52.10
2018-10-12T13:22:29.789Z,52.60
2018-10-12T13:24:56.975Z,52.30
2018-10-12T13:27:24.142Z,52.50
2018-10-12T13:29:51.323Z,52.50
2018-10-12T13:32:18.595Z,52.10
2018-10-12T13:34:45.803Z,51.20
2018-10-12T13:37:12.984Z,51.20
2018-10-12T13:39:40.159Z,51.20
2018-10-12T13:42:14.233Z,51.20
2018-10-12T13:44:41.400Z,51.50
2018-10-12T13:47:08.552Z,51.20
2018-10-12T13:49:35.748Z,51.10
2018-10-12T13:52:02.930Z,50.90
2018-10-12T13:54:30.135Z,51.20
2018-10-12T13:56:58.142Z,50.80
2018-10-12T13:59:26.275Z,51.10
2018-10-12T14:01:53.469Z,51.00
2018-10-12T14:04:20.632Z,50.90
2018-10-12T14:06:47.827Z,51.80
2018-10-12T14:09:14.985Z,50.90
2018-10-12T14:11:42.167Z,50.70
2018-10-12T14:14:09.323Z,51.40
2018-10-12T14:16:36.499Z,51.00
2018-10-12T14:19:03.843Z,50.90
2018-10-12T14:21:31.064Z,51.00
2018-10-12T14:24:05.267Z,51.00
2018-10-12T14:26:32.617Z,50.80
2018-10-12T14:28:59.961Z,50.70
2018-10-12T14:31:27.173Z,50.20
2018-10-12T14:33:54.422Z,51.00
2018-10-12T14:36:21.667Z,50.80
2018-10-12T14:38:48.919Z,50.00
2018-10-12T14:41:16.210Z,50.80
2018-10-12T14:43:43.456Z,50.70
2018-10-12T14:46:10.619Z,50.60
2018-10-12T14:48:37.791Z,51.50
2018-10-12T14:51:05.469Z,52.00
2018-10-12T14:53:32.919Z,51.80
2018-10-12T14:56:00.128Z,51.50
2018-10-12T14:58:27.351Z,50.60
2018-10-12T15:00:54.623Z,51.30
2018-10-12T15:03:21.823Z,50.50
2018-10-12T15:05:49.004Z,50.40
2018-10-12T15:08:16.161Z,50.70
2018-10-12T15:10:43.389Z,52.20
2018-10-12T15:13:10.550Z,51.20
2018-10-12T15:15:37.746Z,51.20
2018-10-12T15:18:05.133Z,51.20
2018-10-12T15:20:32.491Z,50.60
2018-10-12T15:22:59.660Z,50.80
2018-10-12T15:25:26.846Z,50.40
2018-10-12T15:27:54.019Z,50.50
2018-10-12T15:30:21.218Z,50.10
2018-10-12T15:32:48.405Z,50.00
2018-10-12T15:35:15.595Z,50.50
2018-10-12T15:37:43.711Z,51.20
2018-10-12T15:40:10.820Z,51.40
2018-10-12T15:42:38.235Z,51.40
2018-10-12T15:45:05.533Z,52.00
2018-10-12T15:47:32.834Z,52.50
2018-10-12T15:50:00.014Z,53.00
2018-10-12T15:52:27.207Z,53.30
2018-10-12T15:54:54.403Z,53.40
2018-10-12T15:57:26.479Z,53.60
2018-10-12T15:59:53.668Z,54.60
2018-10-12T16:02:27.747Z,55.10
2018-10-12T16:04:54.917Z,55.60
2018-10-12T16:07:22.099Z,56.30
2018-10-12T16:09:50.651Z,57.00
2018-10-12T16:12:18.736Z,57.30
2018-10-12T16:14:45.956Z,57.90
2018-10-12T16:17:13.127Z,57.90
2018-10-12T16:19:40.391Z,58.60
2018-10-12T16:22:08.083Z,59.30
2018-10-12T16:24:35.255Z,60.60
2018-10-12T16:27:02.448Z,62.90
2018-10-12T16:29:29.611Z,64.20
2018-10-12T16:31:56.779Z,65.30
2018-10-12T16:34:24.020Z,66.80
2018-10-12T16:36:51.179Z,67.10
2018-10-12T16:39:18.376Z,67.50
2018-10-12T16:41:45.567Z,68.00
2018-10-12T16:47:11.823Z,69.30
2018-10-12T16:49:38.991Z,70.00
2018-10-12T16:52:06.261Z,70.40
2018-10-12T16:54:33.427Z,71.00
2018-10-12T16:57:00.609Z,71.20
2018-10-12T16:59:27.827Z,72.00
2018-10-12T17:01:55.004Z,72.00
2018-10-12T17:04:22.160Z,72.00
2018-10-12T17:06:49.516Z,73.10
2018-10-12T17:09:16.668Z,73.40
2018-10-12T17:11:43.830Z,73.30
2018-10-12T17:14:11.011Z,73.70
2018-10-12T17:16:38.176Z,74.00
2018-10-12T17:21:39.572Z,74.50
2018-10-12T17:24:06.766Z,74.70
2018-10-12T17:26:33.936Z,74.70
2018-10-12T17:29:01.105Z,75.10
2018-10-12T17:31:28.283Z,75.00
2018-10-12T17:33:55.451Z,75.40
2018-10-12T17:36:22.635Z,75.40
2018-10-12T17:38:49.811Z,75.80
2018-10-12T17:41:19.147Z,75.60
2018-10-12T17:43:46.513Z,76.00
2018-10-12T17:46:13.976Z,75.90
2018-10-12T17:48:41.219Z,75.60
2018-10-12T17:51:08.567Z,75.60
2018-10-12T17:53:36.051Z,75.70
2018-10-12T17:56:03.255Z,75.90
2018-10-12T17:58:30.759Z,75.90
2018-10-12T18:00:57.964Z,75.70
2018-10-12T18:03:25.140Z,75.90
2018-10-12T18:05:52.311Z,75.40
2018-10-12T18:08:19.497Z,75.40
2018-10-12T18:10:46.670Z,75.70
2018-10-12T18:13:13.835Z,75.90
2018-10-12T18:15:40.994Z,76.20
2018-10-12T18:18:08.173Z,76.30
2018-10-12T18:20:35.348Z,76.20
2018-10-12T18:23:02.592Z,76.10
2018-10-12T18:25:29.773Z,76.30
2018-10-12T18:27:56.927Z,76.30
2018-10-12T18:30:24.093Z,76.40
2018-10-12T18:32:51.277Z,76.30
2018-10-12T18:35:18.459Z,76.40
2018-10-12T18:37:45.635Z,76.60
2018-10-12T18:40:12.798Z,76.30
2018-10-12T18:42:40.024Z,76.30
2018-10-12T18:45:07.182Z,76.00
2018-10-12T18:47:34.390Z,75.90
2018-10-12T18:50:01.568Z,76.70
2018-10-12T18:52:28.746Z,77.40
2018-10-12T18:54:55.914Z,75.80
2018-10-12T18:57:23.067Z,76.80
2018-10-12T18:59:50.287Z,77.10
2018-10-12T19:02:17.392Z,77.40
2018-10-12T19:04:44.601Z,76.90
2018-10-12T19:07:11.727Z,77.70
2018-10-12T19:09:38.895Z,77.60
2018-10-12T19:12:06.068Z,77.70
2018-10-12T19:14:33.228Z,78.20
2018-10-12T19:17:00.387Z,77.60
2018-10-12T19:19:27.576Z,77.40
2018-10-12T19:21:54.755Z,77.90
2018-10-12T19:24:21.935Z,77.90
2018-10-12T19:26:49.124Z,78.10
2018-10-12T19:29:16.296Z,77.30
2018-10-12T19:31:43.516Z,77.70
2018-10-12T19:34:10.646Z,77.10
2018-10-12T19:36:37.975Z,77.60
2018-10-12T19:39:06.336Z,77.60
2018-10-12T19:41:33.507Z,77.90
2018-10-12T19:44:00.671Z,78.00
2018-10-12T19:46:27.835Z,78.50
2018-10-12T19:48:55.003Z,78.60
2018-10-12T19:51:22.154Z,79.20
2018-10-12T19:53:49.325Z,79.40
2018-10-12T19:56:16.507Z,79.60
2018-10-12T19:58:43.675Z,79.60
2018-10-12T20:01:10.822Z,80.00
2018-10-12T20:03:37.999Z,79.90
2018-10-12T20:06:05.327Z,80.10
2018-10-12T20:08:32.516Z,80.10
2018-10-12T20:10:59.682Z,80.60
2018-10-12T20:13:26.852Z,80.40
2018-10-12T20:15:54.032Z,80.20
2018-10-12T20:18:21.195Z,80.70
2018-10-12T20:20:48.372Z,80.80
2018-10-12T20:23:15.528Z,81.30
2018-10-12T20:25:42.681Z,81.60
2018-10-12T20:28:09.850Z,81.80
2018-10-12T20:30:37.006Z,81.60
2018-10-12T20:33:04.167Z,81.50
2018-10-12T20:35:31.366Z,81.80
2018-10-12T20:37:58.619Z,81.10
2018-10-12T20:40:25.793Z,81.50
2018-10-12T20:42:52.963Z,81.70
2018-10-12T20:45:20.147Z,82.30
2018-10-12T20:47:47.308Z,82.20
2018-10-12T20:50:14.512Z,81.90
2018-10-12T20:52:41.672Z,82.00
2018-10-12T20:55:08.855Z,80.20
2018-10-12T20:57:40.628Z,80.80
2018-10-12T21:00:07.827Z,81.70
2018-10-12T21:02:34.999Z,82.20
2018-10-12T21:05:02.174Z,82.50
2018-10-12T21:07:29.330Z,83.00
2018-10-12T21:09:56.506Z,82.80
2018-10-12T21:12:23.664Z,83.70
2018-10-12T21:14:50.826Z,83.70
2018-10-12T21:17:18.070Z,83.60
2018-10-12T21:19:45.255Z,83.50
2018-10-12T21:22:12.431Z,83.50
2018-10-12T21:24:39.605Z,83.70
2018-10-12T21:27:07.022Z,83.60
2018-10-12T21:29:34.187Z,83.40
2018-10-12T21:32:01.339Z,80.20
2018-10-12T21:34:28.508Z,77.70
2018-10-12T21:36:55.655Z,79.30
2018-10-12T21:39:22.815Z,79.80
2018-10-12T21:41:49.976Z,78.90
2018-10-12T21:44:17.159Z,79.50
2018-10-12T21:46:44.393Z,78.10
2018-10-12T21:49:11.990Z,76.80
2018-10-12T21:51:39.155Z,75.70
2018-10-12T21:54:06.322Z,76.20
2018-10-12T21:56:33.605Z,77.30
2018-10-12T21:59:01.947Z,77.10
2018-10-12T22:01:29.118Z,77.70
2018-10-12T22:03:56.280Z,78.60
2018-10-12T22:06:23.439Z,78.20
2018-10-12T22:08:51.856Z,78.70
2018-10-12T22:11:19.050Z,79.50
2018-10-12T22:13:46.280Z,79.70
2018-10-12T22:16:13.440Z,80.70
2018-10-12T22:18:40.611Z,80.20
2018-10-12T22:21:07.792Z,80.50
2018-10-12T22:23:34.984Z,80.60
2018-10-12T22:26:03.305Z,80.90
2018-10-12T22:28:30.426Z,81.80
2018-10-12T22:30:57.600Z,81.60
2018-10-12T22:33:24.761Z,81.00
2018-10-12T22:35:51.944Z,81.60
2018-10-12T22:38:19.115Z,82.40
2018-10-12T22:40:46.295Z,83.20
2018-10-12T22:43:13.458Z,83.70
2018-10-12T22:45:40.656Z,84.60
2018-10-12T22:48:07.811Z,84.60
2018-10-12T22:50:35.001Z,84.90
2018-10-12T22:53:02.155Z,85.10
2018-10-12T22:55:29.319Z,85.50
2018-10-12T22:57:59.573Z,86.10
2018-10-12T23:00:26.773Z,86.60
2018-10-12T23:02:53.931Z,86.90
2018-10-12T23:05:21.128Z,87.20
2018-10-12T23:07:48.295Z,87.20
2018-10-12T23:10:15.456Z,86.80
2018-10-12T23:12:42.722Z,87.10
2018-10-12T23:15:09.857Z,83.40
2018-10-12T23:17:37.028Z,80.60
2018-10-12T23:20:04.591Z,80.60
2018-10-12T23:22:38.560Z,81.80
2018-10-12T23:25:05.747Z,83.30
2018-10-12T23:27:33.164Z,84.00
2018-10-12T23:30:00.323Z,81.20
2018-10-12T23:32:27.489Z,81.30
2018-10-12T23:34:54.657Z,80.40
2018-10-12T23:37:21.832Z,80.30
2018-10-12T23:39:48.975Z,80.40
2018-10-12T23:42:16.155Z,80.50
2018-10-12T23:44:43.315Z,81.40
2018-10-12T23:47:10.638Z,82.60
2018-10-12T23:49:37.811Z,83.50
2018-10-12T23:52:05.179Z,84.50
2018-10-12T23:54:32.336Z,85.20
2018-10-12T23:56:59.516Z,86.50
2018-10-12T23:59:26.668Z,86.80
